sensor_id;sensor_type;location;lat;lon;timestamp;pressure;altitude;pressure_sealevel;temperature;humidity
36222;BME280;22266;52.340;4.962;2023-12-29T00:01:48;100507.25;;;9.80;96.12
36222;BME280;22266;52.340;4.962;2023-12-29T00:04:14;100497.34;;;9.80;95.84
36222;BME280;22266;52.340;4.962;2023-12-29T00:06:41;100489.91;;;9.82;95.31
36222;BME280;22266;52.340;4.962;2023-12-29T00:09:22;100503.88;;;9.71;95.60
36222;BME280;22266;52.340;4.962;2023-12-29T00:11:50;100488.41;;;9.73;96.15
36222;BME280;22266;52.340;4.962;2023-12-29T00:14:17;100492.75;;;9.74;95.74
36222;BME280;22266;52.340;4.962;2023-12-29T00:16:43;100490.13;;;9.81;95.67
36222;BME280;22266;52.340;4.962;2023-12-29T00:19:11;100488.91;;;9.90;95.49
36222;BME280;22266;52.340;4.962;2023-12-29T00:21:39;100499.47;;;9.91;94.83
36222;BME280;22266;52.340;4.962;2023-12-29T00:24:05;100501.09;;;9.86;95.44
36222;BME280;22266;52.340;4.962;2023-12-29T00:26:32;100489.53;;;9.85;95.52
36222;BME280;22266;52.340;4.962;2023-12-29T00:28:59;100474.44;;;9.91;95.24
36222;BME280;22266;52.340;4.962;2023-12-29T00:31:25;100473.38;;;9.85;95.45
36222;BME280;22266;52.340;4.962;2023-12-29T00:33:53;100459.72;;;9.80;95.42
36222;BME280;22266;52.340;4.962;2023-12-29T00:36:20;100458.63;;;9.75;95.93
36222;BME280;22266;52.340;4.962;2023-12-29T00:38:46;100451.66;;;9.80;96.06
36222;BME280;22266;52.340;4.962;2023-12-29T00:41:13;100452.59;;;9.66;96.39
36222;BME280;22266;52.340;4.962;2023-12-29T00:43:40;100443.06;;;9.63;96.99
36222;BME280;22266;52.340;4.962;2023-12-29T00:46:07;100454.06;;;9.69;97.56
36222;BME280;22266;52.340;4.962;2023-12-29T00:48:35;100453.22;;;9.68;97.42
36222;BME280;22266;52.340;4.962;2023-12-29T00:51:02;100448.47;;;9.70;97.42
36222;BME280;22266;52.340;4.962;2023-12-29T00:53:29;100446.63;;;9.71;96.75
36222;BME280;22266;52.340;4.962;2023-12-29T00:55:59;100461.09;;;9.70;97.21
36222;BME280;22266;52.340;4.962;2023-12-29T00:58:26;100455.28;;;9.66;96.75
36222;BME280;22266;52.340;4.962;2023-12-29T01:00:53;100450.28;;;9.63;96.92
36222;BME280;22266;52.340;4.962;2023-12-29T01:03:20;100450.13;;;9.64;96.73
36222;BME280;22266;52.340;4.962;2023-12-29T01:05:50;100446.78;;;9.62;96.80
36222;BME280;22266;52.340;4.962;2023-12-29T01:08:16;100451.94;;;9.64;96.42
36222;BME280;22266;52.340;4.962;2023-12-29T01:10:43;100433.56;;;9.61;96.72
36222;BME280;22266;52.340;4.962;2023-12-29T01:13:10;100439.16;;;9.66;96.60
36222;BME280;22266;52.340;4.962;2023-12-29T01:15:37;100434.00;;;9.64;96.15
36222;BME280;22266;52.340;4.962;2023-12-29T01:18:04;100447.59;;;9.63;95.89
36222;BME280;22266;52.340;4.962;2023-12-29T01:20:31;100422.59;;;9.62;95.87
36222;BME280;22266;52.340;4.962;2023-12-29T01:22:58;100438.94;;;9.61;95.75
36222;BME280;22266;52.340;4.962;2023-12-29T01:25:24;100445.16;;;9.68;95.99
36222;BME280;22266;52.340;4.962;2023-12-29T01:27:51;100426.38;;;9.75;95.74
36222;BME280;22266;52.340;4.962;2023-12-29T01:30:18;100445.19;;;9.75;95.60
36222;BME280;22266;52.340;4.962;2023-12-29T01:32:44;100440.47;;;9.77;95.21
36222;BME280;22266;52.340;4.962;2023-12-29T01:35:11;100436.13;;;9.82;94.83
36222;BME280;22266;52.340;4.962;2023-12-29T01:37:37;100429.28;;;9.73;95.42
36222;BME280;22266;52.340;4.962;2023-12-29T01:40:04;100437.97;;;9.75;95.01
36222;BME280;22266;52.340;4.962;2023-12-29T01:42:32;100425.78;;;9.79;95.37
36222;BME280;22266;52.340;4.962;2023-12-29T01:44:58;100429.53;;;9.85;95.20
36222;BME280;22266;52.340;4.962;2023-12-29T01:47:25;100431.63;;;9.89;94.91
36222;BME280;22266;52.340;4.962;2023-12-29T01:49:52;100432.84;;;9.87;94.66
36222;BME280;22266;52.340;4.962;2023-12-29T01:52:19;100435.16;;;9.90;94.70
36222;BME280;22266;52.340;4.962;2023-12-29T01:54:49;100437.63;;;9.91;93.98
36222;BME280;22266;52.340;4.962;2023-12-29T01:57:17;100440.31;;;9.85;94.55
36222;BME280;22266;52.340;4.962;2023-12-29T01:59:43;100443.97;;;9.77;94.75
36222;BME280;22266;52.340;4.962;2023-12-29T02:02:12;100448.72;;;9.75;94.44
36222;BME280;22266;52.340;4.962;2023-12-29T02:04:40;100466.75;;;9.81;94.40
36222;BME280;22266;52.340;4.962;2023-12-29T02:07:07;100457.22;;;9.79;95.02
36222;BME280;22266;52.340;4.962;2023-12-29T02:09:34;100453.03;;;9.70;95.86
36222;BME280;22266;52.340;4.962;2023-12-29T02:12:02;100449.97;;;9.73;95.97
36222;BME280;22266;52.340;4.962;2023-12-29T02:14:28;100452.66;;;9.79;95.84
36222;BME280;22266;52.340;4.962;2023-12-29T02:17:05;100452.28;;;9.82;95.64
36222;BME280;22266;52.340;4.962;2023-12-29T02:19:40;100455.19;;;9.87;95.07
36222;BME280;22266;52.340;4.962;2023-12-29T02:22:10;100448.53;;;9.83;95.46
36222;BME280;22266;52.340;4.962;2023-12-29T02:24:38;100459.47;;;9.75;95.45
36222;BME280;22266;52.340;4.962;2023-12-29T02:27:11;100461.13;;;9.76;95.64
36222;BME280;22266;52.340;4.962;2023-12-29T02:29:43;100461.53;;;9.73;95.77
36222;BME280;22266;52.340;4.962;2023-12-29T02:32:14;100459.47;;;9.75;95.68
36222;BME280;22266;52.340;4.962;2023-12-29T02:34:44;100457.22;;;9.79;95.39
36222;BME280;22266;52.340;4.962;2023-12-29T02:37:14;100433.84;;;9.79;95.40
36222;BME280;22266;52.340;4.962;2023-12-29T02:39:41;100441.47;;;9.76;95.61
36222;BME280;22266;52.340;4.962;2023-12-29T02:42:08;100430.16;;;9.80;95.57
36222;BME280;22266;52.340;4.962;2023-12-29T02:44:35;100421.06;;;9.81;95.28
36222;BME280;22266;52.340;4.962;2023-12-29T02:47:02;100428.91;;;9.83;95.07
36222;BME280;22266;52.340;4.962;2023-12-29T02:49:30;100428.06;;;9.82;95.12
36222;BME280;22266;52.340;4.962;2023-12-29T02:51:57;100426.59;;;9.80;94.58
36222;BME280;22266;52.340;4.962;2023-12-29T02:54:24;100435.91;;;9.77;94.63
36222;BME280;22266;52.340;4.962;2023-12-29T02:56:50;100448.53;;;9.83;94.26
36222;BME280;22266;52.340;4.962;2023-12-29T02:59:17;100447.72;;;9.83;93.71
36222;BME280;22266;52.340;4.962;2023-12-29T03:01:43;100440.91;;;9.80;93.22
36222;BME280;22266;52.340;4.962;2023-12-29T03:04:10;100462.25;;;9.88;92.96
36222;BME280;22266;52.340;4.962;2023-12-29T03:06:37;100479.81;;;9.84;92.63
36222;BME280;22266;52.340;4.962;2023-12-29T03:09:03;100467.19;;;9.91;92.21
36222;BME280;22266;52.340;4.962;2023-12-29T03:11:30;100468.63;;;9.87;92.08
36222;BME280;22266;52.340;4.962;2023-12-29T03:13:58;100471.75;;;9.91;91.80
36222;BME280;22266;52.340;4.962;2023-12-29T03:16:24;100471.53;;;9.86;91.64
36222;BME280;22266;52.340;4.962;2023-12-29T03:18:51;100467.97;;;9.79;90.90
36222;BME280;22266;52.340;4.962;2023-12-29T03:21:18;100458.84;;;9.73;90.18
36222;BME280;22266;52.340;4.962;2023-12-29T03:23:44;100461.47;;;9.66;89.61
36222;BME280;22266;52.340;4.962;2023-12-29T03:26:11;100456.53;;;9.70;88.67
36222;BME280;22266;52.340;4.962;2023-12-29T03:28:37;100467.53;;;9.75;87.44
36222;BME280;22266;52.340;4.962;2023-12-29T03:31:04;100475.97;;;9.72;86.69
36222;BME280;22266;52.340;4.962;2023-12-29T03:33:32;100471.63;;;9.71;86.54
36222;BME280;22266;52.340;4.962;2023-12-29T03:35:58;100468.34;;;9.69;85.10
36222;BME280;22266;52.340;4.962;2023-12-29T03:38:25;100463.41;;;9.73;84.42
36222;BME280;22266;52.340;4.962;2023-12-29T03:40:52;100459.91;;;9.79;83.99
36222;BME280;22266;52.340;4.962;2023-12-29T03:43:18;100446.88;;;9.82;82.76
36222;BME280;22266;52.340;4.962;2023-12-29T03:45:45;100453.91;;;9.83;82.59
36222;BME280;22266;52.340;4.962;2023-12-29T03:48:12;100459.28;;;9.83;81.74
36222;BME280;22266;52.340;4.962;2023-12-29T03:50:38;100448.09;;;9.80;80.98
36222;BME280;22266;52.340;4.962;2023-12-29T03:53:05;100426.00;;;9.78;79.31
36222;BME280;22266;52.340;4.962;2023-12-29T03:55:32;100420.00;;;9.82;79.69
36222;BME280;22266;52.340;4.962;2023-12-29T03:57:59;100402.84;;;9.83;79.24
36222;BME280;22266;52.340;4.962;2023-12-29T04:00:28;100414.19;;;9.79;79.14
36222;BME280;22266;52.340;4.962;2023-12-29T04:02:55;100415.41;;;9.76;78.36
36222;BME280;22266;52.340;4.962;2023-12-29T04:05:22;100434.66;;;9.80;78.29
36222;BME280;22266;52.340;4.962;2023-12-29T04:07:48;100441.75;;;9.87;77.97
36222;BME280;22266;52.340;4.962;2023-12-29T04:10:15;100426.16;;;9.76;78.15
36222;BME280;22266;52.340;4.962;2023-12-29T04:12:41;100438.59;;;9.77;77.86
36222;BME280;22266;52.340;4.962;2023-12-29T04:15:08;100435.94;;;9.84;77.99
36222;BME280;22266;52.340;4.962;2023-12-29T04:17:35;100431.41;;;9.84;77.61
36222;BME280;22266;52.340;4.962;2023-12-29T04:20:02;100436.78;;;9.91;77.63
36222;BME280;22266;52.340;4.962;2023-12-29T04:22:29;100434.09;;;9.84;77.30
36222;BME280;22266;52.340;4.962;2023-12-29T04:24:56;100428.69;;;9.78;77.62
36222;BME280;22266;52.340;4.962;2023-12-29T04:27:22;100431.19;;;9.86;77.37
36222;BME280;22266;52.340;4.962;2023-12-29T04:29:49;100433.69;;;9.87;77.36
36222;BME280;22266;52.340;4.962;2023-12-29T04:32:15;100438.22;;;9.87;77.74
36222;BME280;22266;52.340;4.962;2023-12-29T04:34:43;100427.69;;;9.85;78.46
36222;BME280;22266;52.340;4.962;2023-12-29T04:37:10;100442.78;;;9.86;79.48
36222;BME280;22266;52.340;4.962;2023-12-29T04:39:38;100433.69;;;9.87;80.27
36222;BME280;22266;52.340;4.962;2023-12-29T04:42:05;100426.44;;;9.88;80.95
36222;BME280;22266;52.340;4.962;2023-12-29T04:44:31;100421.94;;;9.95;80.97
36222;BME280;22266;52.340;4.962;2023-12-29T04:46:58;100417.53;;;9.87;82.43
36222;BME280;22266;52.340;4.962;2023-12-29T04:49:24;100412.38;;;9.86;82.63
36222;BME280;22266;52.340;4.962;2023-12-29T04:51:51;100427.28;;;9.88;83.52
36222;BME280;22266;52.340;4.962;2023-12-29T04:54:18;100414.84;;;9.87;83.73
36222;BME280;22266;52.340;4.962;2023-12-29T04:56:45;100421.50;;;9.91;83.84
36222;BME280;22266;52.340;4.962;2023-12-29T04:59:11;100407.66;;;9.95;84.12
36222;BME280;22266;52.340;4.962;2023-12-29T05:01:38;100422.13;;;9.94;84.05
36222;BME280;22266;52.340;4.962;2023-12-29T05:04:05;100409.53;;;9.94;84.40
36222;BME280;22266;52.340;4.962;2023-12-29T05:06:31;100408.88;;;9.92;84.18
36222;BME280;22266;52.340;4.962;2023-12-29T05:08:58;100418.03;;;9.98;83.94
36222;BME280;22266;52.340;4.962;2023-12-29T05:11:24;100423.41;;;9.98;84.02
36222;BME280;22266;52.340;4.962;2023-12-29T05:13:51;100430.63;;;9.97;84.02
36222;BME280;22266;52.340;4.962;2023-12-29T05:16:18;100425.44;;;9.96;83.92
36222;BME280;22266;52.340;4.962;2023-12-29T05:18:44;100426.69;;;10.00;83.83
36222;BME280;22266;52.340;4.962;2023-12-29T05:21:15;100426.69;;;10.00;84.12
36222;BME280;22266;52.340;4.962;2023-12-29T05:23:43;100407.84;;;9.86;84.06
36222;BME280;22266;52.340;4.962;2023-12-29T05:26:10;100421.66;;;9.83;84.18
36222;BME280;22266;52.340;4.962;2023-12-29T05:28:36;100421.28;;;9.86;83.86
36222;BME280;22266;52.340;4.962;2023-12-29T05:31:03;100422.91;;;9.81;83.68
36222;BME280;22266;52.340;4.962;2023-12-29T05:33:31;100427.47;;;9.80;84.03
36222;BME280;22266;52.340;4.962;2023-12-29T05:35:58;100429.97;;;9.88;83.36
36222;BME280;22266;52.340;4.962;2023-12-29T05:38:25;100414.25;;;9.85;83.74
36222;BME280;22266;52.340;4.962;2023-12-29T05:40:52;100408.66;;;9.80;83.49
36222;BME280;22266;52.340;4.962;2023-12-29T05:43:19;100414.25;;;9.92;83.93
36222;BME280;22266;52.340;4.962;2023-12-29T05:45:46;100408.03;;;9.85;83.94
36222;BME280;22266;52.340;4.962;2023-12-29T05:48:13;100418.81;;;9.91;83.90
36222;BME280;22266;52.340;4.962;2023-12-29T05:50:40;100414.06;;;9.94;84.20
36222;BME280;22266;52.340;4.962;2023-12-29T05:53:07;100414.69;;;9.89;84.53
36222;BME280;22266;52.340;4.962;2023-12-29T05:55:34;100419.81;;;9.84;84.60
36222;BME280;22266;52.340;4.962;2023-12-29T05:58:01;100401.41;;;9.87;84.62
36222;BME280;22266;52.340;4.962;2023-12-29T06:00:28;100384.50;;;9.94;84.87
36222;BME280;22266;52.340;4.962;2023-12-29T06:02:55;100393.16;;;9.89;84.85
36222;BME280;22266;52.340;4.962;2023-12-29T06:05:21;100390.69;;;9.94;84.84
36222;BME280;22266;52.340;4.962;2023-12-29T06:07:48;100382.19;;;9.90;85.22
36222;BME280;22266;52.340;4.962;2023-12-29T06:10:15;100388.44;;;9.98;85.38
36222;BME280;22266;52.340;4.962;2023-12-29T06:12:41;100375.19;;;9.89;85.86
36222;BME280;22266;52.340;4.962;2023-12-29T06:15:08;100379.09;;;9.87;85.99
36222;BME280;22266;52.340;4.962;2023-12-29T06:17:36;100364.59;;;9.81;86.25
36222;BME280;22266;52.340;4.962;2023-12-29T06:20:03;100370.66;;;9.97;86.46
36222;BME280;22266;52.340;4.962;2023-12-29T06:22:32;100377.88;;;9.89;86.64
36222;BME280;22266;52.340;4.962;2023-12-29T06:24:59;100356.97;;;9.91;86.68
36222;BME280;22266;52.340;4.962;2023-12-29T06:27:26;100364.59;;;9.88;87.04
36222;BME280;22266;52.340;4.962;2023-12-29T06:29:54;100369.81;;;9.89;86.77
36222;BME280;22266;52.340;4.962;2023-12-29T06:32:21;100374.13;;;9.90;86.60
36222;BME280;22266;52.340;4.962;2023-12-29T06:34:47;100380.56;;;9.89;86.52
36222;BME280;22266;52.340;4.962;2023-12-29T06:37:14;100377.88;;;9.89;86.67
36222;BME280;22266;52.340;4.962;2023-12-29T06:39:41;100392.31;;;9.82;86.85
36222;BME280;22266;52.340;4.962;2023-12-29T06:42:08;100399.53;;;9.81;86.89
36222;BME280;22266;52.340;4.962;2023-12-29T06:44:35;100398.88;;;9.73;87.07
36222;BME280;22266;52.340;4.962;2023-12-29T06:47:01;100416.31;;;9.90;86.50
36222;BME280;22266;52.340;4.962;2023-12-29T06:49:31;100418.81;;;9.91;86.77
36222;BME280;22266;52.340;4.962;2023-12-29T06:51:58;100426.31;;;10.03;86.38
36222;BME280;22266;52.340;4.962;2023-12-29T06:54:25;100428.00;;;10.10;86.19
36222;BME280;22266;52.340;4.962;2023-12-29T06:56:51;100428.38;;;10.07;85.63
36222;BME280;22266;52.340;4.962;2023-12-29T06:59:18;100427.13;;;10.03;86.24
36222;BME280;22266;52.340;4.962;2023-12-29T07:01:46;100426.31;;;10.03;86.40
36222;BME280;22266;52.340;4.962;2023-12-29T07:04:13;100426.91;;;9.98;87.14
36222;BME280;22266;52.340;4.962;2023-12-29T07:06:41;100403.53;;;9.99;87.46
36222;BME280;22266;52.340;4.962;2023-12-29T07:09:08;100412.47;;;10.06;87.14
36222;BME280;22266;52.340;4.962;2023-12-29T07:11:36;100423.22;;;10.06;86.93
36222;BME280;22266;52.340;4.962;2023-12-29T07:14:03;100419.09;;;10.10;87.02
36222;BME280;22266;52.340;4.962;2023-12-29T07:16:29;100424.09;;;10.13;86.77
36222;BME280;22266;52.340;4.962;2023-12-29T07:18:56;100415.97;;;10.06;86.93
36222;BME280;22266;52.340;4.962;2023-12-29T07:21:23;100419.94;;;10.10;87.04
36222;BME280;22266;52.340;4.962;2023-12-29T07:23:50;100424.88;;;10.07;87.68
36222;BME280;22266;52.340;4.962;2023-12-29T07:26:16;100411.03;;;10.10;87.75
36222;BME280;22266;52.340;4.962;2023-12-29T07:28:43;100418.44;;;10.08;87.68
36222;BME280;22266;52.340;4.962;2023-12-29T07:31:09;100419.28;;;10.08;88.16
36222;BME280;22266;52.340;4.962;2023-12-29T07:33:36;100417.81;;;9.99;88.50
36222;BME280;22266;52.340;4.962;2023-12-29T07:36:04;100435.00;;;10.05;88.59
36222;BME280;22266;52.340;4.962;2023-12-29T07:38:30;100430.03;;;10.02;89.28
36222;BME280;22266;52.340;4.962;2023-12-29T07:40:57;100426.25;;;9.96;89.52
36222;BME280;22266;52.340;4.962;2023-12-29T07:43:24;100426.94;;;10.05;89.51
36222;BME280;22266;52.340;4.962;2023-12-29T07:45:51;100433.16;;;10.05;89.55
36222;BME280;22266;52.340;4.962;2023-12-29T07:48:17;100425.88;;;9.99;89.71
36222;BME280;22266;52.340;4.962;2023-12-29T07:50:44;100431.47;;;9.98;89.96
36222;BME280;22266;52.340;4.962;2023-12-29T07:53:11;100429.22;;;10.01;90.18
36222;BME280;22266;52.340;4.962;2023-12-29T07:55:38;100433.97;;;10.12;90.02
36222;BME280;22266;52.340;4.962;2023-12-29T07:58:06;100422.22;;;10.13;90.02
36222;BME280;22266;52.340;4.962;2023-12-29T08:00:33;100430.91;;;10.15;90.11
36222;BME280;22266;52.340;4.962;2023-12-29T08:02:59;100440.22;;;10.13;90.25
36222;BME280;22266;52.340;4.962;2023-12-29T08:05:26;100431.72;;;10.16;89.90
36222;BME280;22266;52.340;4.962;2023-12-29T08:07:53;100429.03;;;10.16;90.49
36222;BME280;22266;52.340;4.962;2023-12-29T08:10:20;100425.13;;;10.19;90.53
36222;BME280;22266;52.340;4.962;2023-12-29T08:12:47;100422.84;;;10.15;90.36
36222;BME280;22266;52.340;4.962;2023-12-29T08:15:13;100437.94;;;10.16;91.17
36222;BME280;22266;52.340;4.962;2023-12-29T08:17:40;100431.34;;;10.19;91.08
36222;BME280;22266;52.340;4.962;2023-12-29T08:20:07;100440.00;;;10.14;91.48
36222;BME280;22266;52.340;4.962;2023-12-29T08:22:34;100440.41;;;10.11;92.13
36222;BME280;22266;52.340;4.962;2023-12-29T08:25:00;100441.41;;;10.04;92.22
36222;BME280;22266;52.340;4.962;2023-12-29T08:27:27;100443.72;;;10.13;93.11
36222;BME280;22266;52.340;4.962;2023-12-29T08:29:53;100452.41;;;10.15;92.44
36222;BME280;22266;52.340;4.962;2023-12-29T08:32:20;100441.94;;;10.27;92.67
36222;BME280;22266;52.340;4.962;2023-12-29T08:34:48;100449.56;;;10.24;92.36
36222;BME280;22266;52.340;4.962;2023-12-29T08:37:15;100443.72;;;10.13;92.69
36222;BME280;22266;52.340;4.962;2023-12-29T08:39:46;100447.44;;;10.06;92.98
36222;BME280;22266;52.340;4.962;2023-12-29T08:42:14;100439.16;;;10.07;93.48
36222;BME280;22266;52.340;4.962;2023-12-29T08:44:41;100439.78;;;10.09;93.40
36222;BME280;22266;52.340;4.962;2023-12-29T08:47:07;100442.47;;;10.16;93.16
36222;BME280;22266;52.340;4.962;2023-12-29T08:49:38;100434.84;;;10.20;92.70
36222;BME280;22266;52.340;4.962;2023-12-29T08:52:05;100434.41;;;10.16;92.64
36222;BME280;22266;52.340;4.962;2023-12-29T08:54:32;100436.09;;;10.17;92.54
36222;BME280;22266;52.340;4.962;2023-12-29T08:56:59;100438.16;;;10.15;93.10
36222;BME280;22266;52.340;4.962;2023-12-29T08:59:25;100436.28;;;10.15;93.04
36222;BME280;22266;52.340;4.962;2023-12-29T09:01:52;100437.75;;;10.18;92.90
36222;BME280;22266;52.340;4.962;2023-12-29T09:04:18;100442.47;;;10.16;92.82
36222;BME280;22266;52.340;4.962;2023-12-29T09:06:45;100433.81;;;10.14;92.75
36222;BME280;22266;52.340;4.962;2023-12-29T09:09:12;100432.16;;;10.13;93.04
36222;BME280;22266;52.340;4.962;2023-12-29T09:11:39;100433.81;;;10.14;93.03
36222;BME280;22266;52.340;4.962;2023-12-29T09:14:06;100426.09;;;10.04;92.90
36222;BME280;22266;52.340;4.962;2023-12-29T09:16:35;100438.72;;;10.04;92.61
36222;BME280;22266;52.340;4.962;2023-12-29T09:19:02;100445.94;;;10.03;92.33
36222;BME280;22266;52.340;4.962;2023-12-29T09:21:38;100435.63;;;10.07;92.67
36222;BME280;22266;52.340;4.962;2023-12-29T09:24:05;100442.22;;;10.04;92.60
36222;BME280;22266;52.340;4.962;2023-12-29T09:26:32;100447.44;;;10.06;93.25
36222;BME280;22266;52.340;4.962;2023-12-29T09:28:58;100454.06;;;10.10;93.81
36222;BME280;22266;52.340;4.962;2023-12-29T09:31:25;100455.50;;;10.06;94.04
36222;BME280;22266;52.340;4.962;2023-12-29T09:33:52;100461.91;;;10.11;94.18
36222;BME280;22266;52.340;4.962;2023-12-29T09:36:18;100465.00;;;10.08;94.39
36222;BME280;22266;52.340;4.962;2023-12-29T09:38:45;100463.56;;;10.12;94.53
36222;BME280;22266;52.340;4.962;2023-12-29T09:41:14;100463.28;;;10.35;96.43
36222;BME280;22266;52.340;4.962;2023-12-29T09:43:42;100459.22;;;10.59;96.38
36222;BME280;22266;52.340;4.962;2023-12-29T09:46:13;100460.06;;;10.80;95.84
36222;BME280;22266;52.340;4.962;2023-12-29T09:48:42;100461.75;;;10.87;93.91
36222;BME280;22266;52.340;4.962;2023-12-29T09:51:11;100481.81;;;10.72;92.23
36222;BME280;22266;52.340;4.962;2023-12-29T09:53:39;100491.44;;;10.39;92.07
36222;BME280;22266;52.340;4.962;2023-12-29T09:56:07;100492.38;;;10.19;93.22
36222;BME280;22266;52.340;4.962;2023-12-29T09:58:35;100497.31;;;10.15;94.20
36222;BME280;22266;52.340;4.962;2023-12-29T10:01:04;100496.69;;;10.13;94.29
36222;BME280;22266;52.340;4.962;2023-12-29T10:03:32;100493.19;;;10.19;94.98
36222;BME280;22266;52.340;4.962;2023-12-29T10:06:00;100499.66;;;10.25;95.16
36222;BME280;22266;52.340;4.962;2023-12-29T10:08:33;100498.56;;;10.19;95.05
36222;BME280;22266;52.340;4.962;2023-12-29T10:11:01;100519.88;;;10.21;95.05
36222;BME280;22266;52.340;4.962;2023-12-29T10:13:31;100518.22;;;10.13;95.89
36222;BME280;22266;52.340;4.962;2023-12-29T10:16:07;100508.25;;;10.07;95.86
36222;BME280;22266;52.340;4.962;2023-12-29T10:21:23;100523.94;;;10.03;96.20
36222;BME280;22266;52.340;4.962;2023-12-29T10:24:13;100513.63;;;10.07;95.75
36222;BME280;22266;52.340;4.962;2023-12-29T10:26:42;100523.94;;;10.03;95.35
36222;BME280;22266;52.340;4.962;2023-12-29T10:29:11;100524.22;;;10.15;95.54
36222;BME280;22266;52.340;4.962;2023-12-29T10:31:40;100523.47;;;10.28;94.70
36222;BME280;22266;52.340;4.962;2023-12-29T10:34:18;100530.94;;;10.26;94.18
36222;BME280;22266;52.340;4.962;2023-12-29T10:36:46;100527.13;;;10.20;94.39
36222;BME280;22266;52.340;4.962;2023-12-29T10:39:14;100517.47;;;10.26;93.92
36222;BME280;22266;52.340;4.962;2023-12-29T10:41:41;100517.25;;;10.27;93.55
36222;BME280;22266;52.340;4.962;2023-12-29T10:44:08;100527.13;;;10.20;93.98
36222;BME280;22266;52.340;4.962;2023-12-29T10:46:35;100530.47;;;10.22;94.26
36222;BME280;22266;52.340;4.962;2023-12-29T10:49:09;100536.63;;;10.16;93.96
36222;BME280;22266;52.340;4.962;2023-12-29T10:51:36;100526.50;;;10.18;93.43
36222;BME280;22266;52.340;4.962;2023-12-29T10:54:04;100538.53;;;10.22;92.56
36222;BME280;22266;52.340;4.962;2023-12-29T10:56:31;100542.44;;;10.20;91.93
36222;BME280;22266;52.340;4.962;2023-12-29T10:59:03;100536.44;;;10.24;91.31
36222;BME280;22266;52.340;4.962;2023-12-29T11:01:32;100542.31;;;10.28;90.80
36222;BME280;22266;52.340;4.962;2023-12-29T11:04:04;100535.53;;;10.38;90.42
36222;BME280;22266;52.340;4.962;2023-12-29T11:06:40;100529.94;;;10.33;89.72
36222;BME280;22266;52.340;4.962;2023-12-29T11:09:07;100530.75;;;10.34;89.61
36222;BME280;22266;52.340;4.962;2023-12-29T11:11:36;100535.09;;;10.35;89.47
36222;BME280;22266;52.340;4.962;2023-12-29T11:14:04;100547.94;;;10.39;89.16
36222;BME280;22266;52.340;4.962;2023-12-29T11:16:31;100537.84;;;10.42;88.80
36222;BME280;22266;52.340;4.962;2023-12-29T11:19:01;100549.84;;;10.46;88.93
36222;BME280;22266;52.340;4.962;2023-12-29T11:21:30;100552.72;;;10.37;88.19
36222;BME280;22266;52.340;4.962;2023-12-29T11:23:58;100544.03;;;10.49;87.71
36222;BME280;22266;52.340;4.962;2023-12-29T11:26:25;100553.97;;;10.42;87.42
36222;BME280;22266;52.340;4.962;2023-12-29T11:28:53;100560.13;;;10.35;87.07
36222;BME280;22266;52.340;4.962;2023-12-29T11:31:20;100563.47;;;10.37;87.04
36222;BME280;22266;52.340;4.962;2023-12-29T11:34:00;100570.31;;;10.40;86.49
36222;BME280;22266;52.340;4.962;2023-12-29T11:36:33;100570.06;;;10.35;86.05
36222;BME280;22266;52.340;4.962;2023-12-29T11:41:42;100562.03;;;10.42;86.68
36222;BME280;22266;52.340;4.962;2023-12-29T11:44:24;100544.44;;;10.39;86.57
36222;BME280;22266;52.340;4.962;2023-12-29T11:46:52;100560.00;;;10.50;86.77
36222;BME280;22266;52.340;4.962;2023-12-29T11:49:19;100569.25;;;10.34;86.05
36222;BME280;22266;52.340;4.962;2023-12-29T11:51:50;100566.56;;;10.34;86.42
36222;BME280;22266;52.340;4.962;2023-12-29T11:54:26;100558.91;;;10.38;86.62
36222;BME280;22266;52.340;4.962;2023-12-29T11:56:54;100568.84;;;10.37;86.51
36222;BME280;22266;52.340;4.962;2023-12-29T11:59:22;100561.63;;;10.45;86.58
36222;BME280;22266;52.340;4.962;2023-12-29T12:01:57;100569.31;;;10.48;86.67
36222;BME280;22266;52.340;4.962;2023-12-29T12:04:43;100552.13;;;10.49;86.85
36222;BME280;22266;52.340;4.962;2023-12-29T12:09:51;100551.28;;;10.48;87.34
36222;BME280;22266;52.340;4.962;2023-12-29T12:12:42;100545.47;;;10.45;86.89
36222;BME280;22266;52.340;4.962;2023-12-29T12:20:23;100548.75;;;10.33;85.61
36222;BME280;22266;52.340;4.962;2023-12-29T12:22:59;100553.72;;;10.30;84.93
36222;BME280;22266;52.340;4.962;2023-12-29T12:25:27;100548.75;;;10.33;84.48
36222;BME280;22266;52.340;4.962;2023-12-29T12:27:57;100551.69;;;10.38;84.65
36222;BME280;22266;52.340;4.962;2023-12-29T12:30:23;100537.84;;;10.48;84.45
36222;BME280;22266;52.340;4.962;2023-12-29T12:32:58;100533.94;;;10.51;84.09
36222;BME280;22266;52.340;4.962;2023-12-29T12:35:26;100542.53;;;10.33;83.36
36222;BME280;22266;52.340;4.962;2023-12-29T12:38:15;100543.09;;;10.22;82.83
36222;BME280;22266;52.340;4.962;2023-12-29T12:40:46;100541.84;;;10.24;82.74
36222;BME280;22266;52.340;4.962;2023-12-29T12:43:14;100540.44;;;10.28;82.77
36222;BME280;22266;52.340;4.962;2023-12-29T12:45:59;100538.81;;;10.34;82.81
36222;BME280;22266;52.340;4.962;2023-12-29T12:48:39;100518.97;;;10.35;83.17
36222;BME280;22266;52.340;4.962;2023-12-29T12:51:08;100520.00;;;10.40;83.31
36222;BME280;22266;52.340;4.962;2023-12-29T12:53:40;100511.09;;;10.40;83.64
36222;BME280;22266;52.340;4.962;2023-12-29T12:56:07;100517.91;;;10.36;84.03
36222;BME280;22266;52.340;4.962;2023-12-29T12:58:34;100519.19;;;10.40;83.90
36222;BME280;22266;52.340;4.962;2023-12-29T13:01:01;100505.53;;;10.48;83.73
36222;BME280;22266;52.340;4.962;2023-12-29T13:03:29;100510.97;;;10.55;83.41
36222;BME280;22266;52.340;4.962;2023-12-29T13:05:58;100508.44;;;10.47;83.34
36222;BME280;22266;52.340;4.962;2023-12-29T13:08:25;100521.09;;;10.53;83.10
36222;BME280;22266;52.340;4.962;2023-12-29T13:11:04;100537.84;;;10.48;83.17
36222;BME280;22266;52.340;4.962;2023-12-29T13:13:37;100532.03;;;10.45;83.61